createdAt,value
2022-11-11T00:02:09.743Z,12.50
2022-11-11T00:07:31.169Z,11.40
2022-11-11T00:12:52.502Z,10.60
2022-11-11T00:18:32.368Z,10.30
2022-11-11T00:24:11.969Z,10.20
2022-11-11T00:29:32.744Z,11.00
2022-11-11T00:35:14.332Z,11.30
2022-11-11T00:40:35.589Z,11.50
2022-11-11T00:46:16.602Z,11.40
2022-11-11T00:51:38.102Z,11.40
2022-11-11T00:56:59.025Z,12.40
2022-11-11T01:02:19.978Z,11.20
2022-11-11T01:07:41.143Z,11.10
2022-11-11T01:13:22.612Z,10.60
2022-11-11T01:18:43.725Z,12.40
2022-11-11T01:24:04.825Z,12.70
2022-11-11T01:29:25.746Z,11.70
2022-11-11T01:34:46.850Z,11.60
2022-11-11T01:40:08.726Z,11.80
2022-11-11T01:46:14.890Z,12.50
2022-11-11T01:51:41.343Z,12.40
2022-11-11T01:57:11.227Z,13.60
2022-11-11T02:02:40.602Z,13.40
2022-11-11T02:08:07.809Z,12.90
2022-11-11T02:13:47.964Z,12.00
2022-11-11T02:19:09.396Z,11.30
2022-11-11T02:24:32.328Z,10.60
2022-11-11T02:29:56.315Z,10.20
2022-11-11T02:35:22.915Z,9.90
2022-11-11T02:41:04.468Z,9.80
2022-11-11T02:46:25.862Z,9.60
2022-11-11T02:51:47.992Z,9.80
2022-11-11T03:02:31.006Z,11.30
2022-11-11T03:07:52.193Z,10.10
2022-11-11T03:13:13.547Z,10.20
2022-11-11T03:18:34.762Z,10.80
2022-11-11T03:23:55.834Z,11.60
2022-11-11T03:29:16.812Z,10.50
2022-11-11T03:34:38.043Z,10.00
2022-11-11T03:39:59.112Z,10.40
2022-11-11T03:45:20.002Z,10.10
2022-11-11T03:50:41.006Z,9.40
2022-11-11T03:56:02.189Z,9.30
2022-11-11T04:01:41.967Z,10.30
2022-11-11T04:07:21.507Z,9.20
2022-11-11T04:13:01.847Z,8.80
2022-11-11T04:18:42.909Z,8.50
2022-11-11T04:24:24.424Z,8.30
2022-11-11T04:29:47.299Z,8.30
2022-11-11T04:35:10.794Z,8.10
2022-11-11T04:40:50.364Z,8.00
2022-11-11T04:46:11.362Z,9.30
2022-11-11T04:51:52.374Z,9.40
2022-11-11T04:57:13.358Z,9.90
2022-11-11T05:02:52.687Z,10.80
2022-11-11T05:08:32.013Z,10.40
2022-11-11T05:14:13.000Z,9.80
2022-11-11T05:19:53.142Z,9.70
2022-11-11T05:25:26.071Z,8.40
2022-11-11T05:30:46.928Z,8.70
2022-11-11T05:36:08.114Z,9.50
2022-11-11T05:46:50.535Z,10.60
2022-11-11T05:52:18.630Z,9.00
2022-11-11T05:57:39.423Z,9.80
2022-11-11T06:03:05.955Z,10.70
2022-11-11T06:08:26.961Z,9.70
2022-11-11T06:13:48.993Z,10.60
2022-11-11T06:19:10.107Z,9.70
2022-11-11T06:24:31.234Z,10.20
2022-11-11T06:29:52.131Z,12.30
2022-11-11T06:35:13.093Z,10.10
2022-11-11T06:40:34.212Z,9.90
2022-11-11T06:45:56.030Z,10.50
2022-11-11T06:51:18.465Z,9.20
2022-11-11T06:56:39.580Z,9.10
2022-11-11T07:02:00.873Z,8.90
2022-11-11T07:07:21.651Z,8.70
2022-11-11T07:12:42.650Z,8.50
2022-11-11T07:18:04.911Z,8.90
2022-11-11T07:23:25.749Z,9.30
2022-11-11T07:28:46.874Z,9.70
2022-11-11T07:34:08.383Z,9.70
2022-11-11T07:39:29.615Z,9.70
2022-11-11T07:44:50.748Z,9.30
2022-11-11T07:50:12.663Z,10.30
2022-11-11T07:55:33.816Z,10.40
2022-11-11T08:00:54.984Z,10.20
2022-11-11T08:06:18.093Z,11.60
2022-11-11T08:11:57.510Z,12.30
2022-11-11T08:17:18.405Z,10.50
2022-11-11T08:22:40.795Z,11.80
2022-11-11T08:28:04.373Z,10.70
2022-11-11T08:33:34.659Z,12.70
2022-11-11T08:38:56.090Z,13.40
2022-11-11T08:44:17.150Z,14.10
2022-11-11T08:49:38.144Z,11.80
2022-11-11T08:55:01.854Z,12.80
2022-11-11T09:00:24.107Z,13.10
2022-11-11T09:05:47.570Z,12.00
2022-11-11T09:11:08.476Z,13.00
2022-11-11T09:16:29.543Z,12.60
2022-11-11T09:21:53.793Z,12.80
2022-11-11T09:27:15.304Z,13.00
2022-11-11T09:32:36.997Z,13.80
2022-11-11T09:38:00.027Z,13.00
2022-11-11T09:43:59.447Z,14.20
2022-11-11T09:49:57.003Z,15.90
2022-11-11T09:55:26.857Z,17.40
2022-11-11T10:00:54.514Z,16.50
2022-11-11T10:06:24.361Z,16.50
2022-11-11T10:12:00.665Z,15.70
2022-11-11T10:17:37.426Z,16.40
2022-11-11T10:23:17.367Z,14.20
2022-11-11T10:28:49.898Z,16.00
2022-11-11T10:34:17.994Z,14.10
2022-11-11T10:40:00.166Z,15.30
2022-11-11T10:45:27.978Z,15.40
2022-11-11T10:50:54.657Z,15.60
2022-11-11T10:56:30.253Z,14.20
2022-11-11T11:02:15.688Z,15.20
2022-11-11T11:07:51.270Z,15.30
2022-11-11T11:13:25.537Z,16.20
2022-11-11T11:19:19.814Z,15.20
2022-11-11T11:24:43.902Z,15.80
2022-11-11T11:30:24.640Z,16.30
2022-11-11T11:35:45.597Z,16.50
2022-11-11T11:41:06.765Z,16.40
2022-11-11T11:46:39.429Z,14.30
2022-11-11T11:52:17.026Z,12.60
2022-11-11T11:57:37.862Z,12.60
2022-11-11T12:03:30.223Z,12.50
2022-11-11T12:09:03.300Z,12.60
2022-11-11T12:14:43.528Z,14.40
2022-11-11T12:20:14.540Z,15.10
2022-11-11T12:25:52.936Z,16.00
2022-11-11T12:31:14.110Z,15.80
2022-11-11T12:36:35.154Z,16.50
2022-11-11T12:42:11.557Z,15.10
2022-11-11T12:48:17.160Z,14.10
2022-11-11T12:53:53.374Z,12.70
2022-11-11T12:59:35.437Z,13.80
2022-11-11T13:05:14.921Z,15.40
2022-11-11T13:11:09.398Z,14.80
2022-11-11T13:16:30.714Z,15.40
2022-11-11T13:21:59.272Z,16.30
2022-11-11T13:27:42.779Z,15.40
2022-11-11T13:33:23.814Z,14.80
2022-11-11T13:38:54.078Z,13.90
2022-11-11T13:44:24.048Z,14.90
2022-11-11T13:49:55.210Z,14.90
2022-11-11T13:55:25.197Z,13.90
2022-11-11T14:00:46.281Z,14.70
2022-11-11T14:06:16.206Z,14.50
2022-11-11T14:11:37.301Z,14.30
2022-11-11T14:17:21.051Z,13.80
2022-11-11T14:22:43.273Z,12.90
2022-11-11T14:28:05.486Z,13.80
2022-11-11T14:33:46.462Z,13.10
2022-11-11T14:39:27.922Z,12.70
2022-11-11T14:44:49.037Z,14.50
2022-11-11T14:50:32.508Z,12.30
2022-11-11T14:55:55.782Z,13.00
2022-11-11T15:01:20.620Z,11.80
2022-11-11T15:07:00.356Z,11.30
2022-11-11T15:12:42.867Z,11.00
2022-11-11T15:18:26.848Z,10.60
2022-11-11T15:24:06.297Z,10.70
2022-11-11T15:29:39.125Z,10.10
2022-11-11T15:40:22.894Z,9.50
2022-11-11T15:45:44.170Z,9.40
2022-11-11T15:51:27.427Z,9.30
2022-11-11T15:56:48.281Z,9.10
2022-11-11T16:02:26.702Z,8.90
2022-11-11T16:07:51.400Z,8.50
2022-11-11T16:13:26.405Z,8.20
2022-11-11T16:18:52.534Z,7.90
2022-11-11T16:24:27.408Z,7.70
2022-11-11T16:29:48.392Z,7.60
2022-11-11T16:35:23.766Z,7.80
2022-11-11T16:40:44.918Z,7.50
2022-11-11T16:46:08.881Z,7.60
2022-11-11T16:51:42.051Z,7.20
2022-11-11T16:57:03.073Z,6.90
2022-11-11T17:02:25.577Z,6.90
2022-11-11T17:07:46.613Z,6.70
2022-11-11T17:13:07.847Z,6.40
2022-11-11T17:18:29.366Z,6.40
2022-11-11T17:23:52.465Z,6.20
2022-11-11T17:29:14.957Z,6.00
2022-11-11T17:34:36.340Z,6.00
2022-11-11T17:39:57.488Z,6.20
2022-11-11T17:45:19.176Z,6.20
2022-11-11T17:50:40.666Z,6.30
2022-11-11T17:56:05.088Z,6.50
2022-11-11T18:01:34.258Z,7.80
2022-11-11T18:06:55.646Z,6.80
2022-11-11T18:12:16.926Z,6.50
2022-11-11T18:17:38.131Z,6.50
2022-11-11T18:22:58.842Z,6.50
2022-11-11T18:28:20.002Z,6.50
2022-11-11T18:33:47.764Z,6.70
2022-11-11T18:39:10.249Z,6.70
2022-11-11T18:44:31.443Z,6.80
2022-11-11T18:49:58.233Z,6.90
2022-11-11T18:55:19.985Z,6.80
2022-11-11T19:00:41.722Z,6.60
2022-11-11T19:06:07.255Z,6.50
2022-11-11T19:11:29.024Z,6.30
2022-11-11T19:16:50.236Z,6.20
2022-11-11T19:22:11.279Z,6.40
2022-11-11T19:27:32.276Z,6.50
2022-11-11T19:32:53.169Z,6.40
2022-11-11T19:38:14.371Z,6.20
2022-11-11T19:43:36.848Z,6.20
2022-11-11T19:49:00.469Z,6.00
2022-11-11T19:54:22.064Z,6.00
2022-11-11T19:59:43.870Z,5.90
2022-11-11T20:05:07.478Z,5.80
2022-11-11T20:10:29.183Z,5.70
2022-11-11T20:15:51.020Z,5.90
2022-11-11T20:21:13.597Z,5.90
2022-11-11T20:26:35.532Z,6.00
2022-11-11T20:31:56.823Z,5.70
2022-11-11T20:37:18.093Z,5.70
2022-11-11T20:42:39.388Z,6.10
2022-11-11T20:48:00.103Z,6.30
2022-11-11T20:53:21.476Z,6.50
2022-11-11T20:58:43.322Z,6.50
2022-11-11T21:04:05.782Z,6.70
2022-11-11T21:09:26.669Z,6.90
2022-11-11T21:14:47.506Z,6.90
2022-11-11T21:20:08.735Z,7.10
2022-11-11T21:25:32.368Z,7.10
2022-11-11T21:30:58.938Z,7.30
2022-11-11T21:36:21.465Z,7.10
2022-11-11T21:41:42.366Z,7.00
2022-11-11T21:47:03.447Z,7.10
2022-11-11T21:52:24.246Z,7.00
2022-11-11T21:57:45.011Z,7.00
2022-11-11T22:03:06.076Z,7.00
2022-11-11T22:08:27.662Z,6.90
2022-11-11T22:13:49.800Z,6.80
2022-11-11T22:19:14.681Z,6.50
2022-11-11T22:24:35.641Z,6.30
2022-11-11T22:29:56.628Z,6.10
2022-11-11T22:35:17.589Z,6.00
2022-11-11T22:40:38.757Z,5.70
2022-11-11T22:46:00.113Z,5.40
2022-11-11T22:51:22.799Z,5.40
2022-11-11T22:56:43.814Z,5.60
2022-11-11T23:02:05.139Z,5.40
2022-11-11T23:07:25.984Z,5.20
2022-11-11T23:12:46.740Z,5.20
2022-11-11T23:18:07.800Z,5.20
2022-11-11T23:28:50.299Z,4.90
2022-11-11T23:34:11.393Z,4.80
2022-11-11T23:39:32.579Z,4.60
2022-11-11T23:44:53.547Z,4.60
2022-11-11T23:50:14.777Z,4.40
2022-11-11T23:55:36.032Z,4.60
